Time;durP1;ratioP1;P1;durP2;ratioP2;P2;SDS_P1;SDS_P2;PMS_P1;PMS_P2;Temp;Humidity;BMP_temperature;BMP_pressure;BME280_temperature;BME280_humidity;BME280_pressure;Samples;Min_cycle;Max_cycle;Signal;HPM_P1;HPM_P2
2023/12/02 00:02:32;;;;;;;35.13;13.07;;;;;;;;;;4952597;29;20035;-91
2023/12/02 00:05:01;;;;;;;33.38;12.50;;;;;;;;;;4951885;29;20145;-92
2023/12/02 00:07:30;;;;;;;32.58;13.75;;;;;;;;;;4951876;29;20035;-90
2023/12/02 00:09:59;;;;;;;28.95;12.63;;;;;;;;;;4967867;29;20123;-91
2023/12/02 00:12:29;;;;;;;30.33;12.25;;;;;;;;;;4951534;29;20098;-91
2023/12/02 00:15:21;;;;;;;32.38;13.68;;;;;;;;;;4897097;27;7634500;-91
2023/12/02 00:17:54;;;;;;;38.00;14.65;;;;;;;;;;5128994;28;20051;-92
2023/12/02 00:20:26;;;;;;;42.08;13.85;;;;;;;;;;5127707;28;20047;-91
2023/12/02 00:23:12;;;;;;;42.42;13.45;;;;;;;;;;5144459;28;20043;-91
2023/12/02 00:25:56;;;;;;;28.73;11.27;;;;;;;;;;5129149;28;20047;-91
2023/12/02 00:28:36;;;;;;;32.85;11.85;;;;;;;;;;5122392;28;20055;-91
2023/12/02 00:31:18;;;;;;;35.63;12.90;;;;;;;;;;5110142;28;20067;-91
2023/12/02 00:33:57;;;;;;;38.63;13.02;;;;;;;;;;5110718;28;20094;-91
2023/12/02 00:36:34;;;;;;;32.33;12.45;;;;;;;;;;5113080;28;20047;-92
2023/12/02 00:39:15;;;;;;;42.80;13.98;;;;;;;;;;5109553;28;20051;-92
2023/12/02 00:41:49;;;;;;;32.53;11.82;;;;;;;;;;5108350;28;20086;-91
2023/12/02 00:44:34;;;;;;;29.52;11.98;;;;;;;;;;5123246;28;20062;-91
2023/12/02 00:47:09;;;;;;;38.88;13.07;;;;;;;;;;5124923;28;20070;-91
2023/12/02 00:49:51;;;;;;;32.88;12.75;;;;;;;;;;5108746;28;20040;-92
2023/12/02 00:52:22;;;;;;;37.25;13.43;;;;;;;;;;5108508;28;20157;-90
2023/12/02 00:55:15;;;;;;;39.42;15.35;;;;;;;;;;5126326;28;20086;-92
2023/12/02 00:57:59;;;;;;;42.15;14.80;;;;;;;;;;5111847;28;20070;-91
2023/12/02 01:00:31;;;;;;;35.58;15.13;;;;;;;;;;5125619;28;20402;-92
2023/12/02 01:03:13;;;;;;;45.25;15.07;;;;;;;;;;5123940;28;20047;-91
2023/12/02 01:05:54;;;;;;;37.35;13.80;;;;;;;;;;5117385;28;20058;-93
2023/12/02 01:08:23;;;;;;;41.03;15.95;;;;;;;;;;5131645;28;20059;-92
2023/12/02 01:10:58;;;;;;;44.42;14.07;;;;;;;;;;5109853;28;20048;-91
2023/12/02 01:13:36;;;;;;;37.88;15.88;;;;;;;;;;5108533;28;20138;-91
2023/12/02 01:16:17;;;;;;;44.85;14.00;;;;;;;;;;5108668;28;20048;-92
2023/12/02 01:18:50;;;;;;;55.72;18.55;;;;;;;;;;5108298;28;20051;-91
2023/12/02 01:21:21;;;;;;;42.65;15.30;;;;;;;;;;5125367;28;20066;-92
2023/12/02 01:23:54;;;;;;;47.10;15.30;;;;;;;;;;5126107;28;20450;-92
2023/12/02 01:26:35;;;;;;;44.65;14.95;;;;;;;;;;5109583;28;20462;-90
2023/12/02 01:29:05;;;;;;;55.60;19.00;;;;;;;;;;5371988;22;20031;-91
2023/12/02 01:31:35;;;;;;;46.05;15.30;;;;;;;;;;5093558;28;20041;-92
2023/12/02 01:34:04;;;;;;;47.92;14.63;;;;;;;;;;5075126;28;20054;-92
2023/12/02 01:36:40;;;;;;;46.22;14.10;;;;;;;;;;5073699;28;20361;-92
2023/12/02 01:39:18;;;;;;;51.92;15.52;;;;;;;;;;5075254;28;20048;-90
2023/12/02 01:41:45;;;;;;;49.20;15.65;;;;;;;;;;5072145;28;20037;-91
2023/12/02 01:44:14;;;;;;;48.75;17.10;;;;;;;;;;5072434;28;20036;-91
2023/12/02 01:46:55;;;;;;;45.92;15.57;;;;;;;;;;5077492;28;20051;-91
2023/12/02 01:49:40;;;;;;;45.38;16.05;;;;;;;;;;5076819;28;20028;-92
2023/12/02 01:52:21;;;;;;;51.05;16.25;;;;;;;;;;5076019;28;20066;-90
2023/12/02 01:54:49;;;;;;;49.30;17.02;;;;;;;;;;5092175;28;20313;-90
2023/12/02 01:57:19;;;;;;;50.67;15.55;;;;;;;;;;5072987;28;20036;-91
2023/12/02 01:59:52;;;;;;;50.55;18.35;;;;;;;;;;5072257;28;20152;-91
2023/12/02 02:02:33;;;;;;;49.42;16.35;;;;;;;;;;5074199;28;20036;-90
2023/12/02 02:05:10;;;;;;;44.88;18.02;;;;;;;;;;5074204;28;20053;-92
2023/12/02 02:07:46;;;;;;;48.35;17.33;;;;;;;;;;5091735;28;20032;-91
2023/12/02 02:10:25;;;;;;;46.05;17.48;;;;;;;;;;5077554;28;20059;-90
2023/12/02 02:13:07;;;;;;;46.83;15.07;;;;;;;;;;5076268;28;20045;-91
2023/12/02 02:15:39;;;;;;;47.38;15.43;;;;;;;;;;5091625;28;20051;-91
2023/12/02 02:18:26;;;;;;;45.40;14.68;;;;;;;;;;5072817;28;20116;-91
2023/12/02 02:21:07;;;;;;;50.80;16.52;;;;;;;;;;5071971;28;20047;-91
2023/12/02 02:23:50;;;;;;;41.30;14.43;;;;;;;;;;5072702;28;20044;-92
2023/12/02 02:26:19;;;;;;;49.63;16.70;;;;;;;;;;5073018;28;20052;-91
2023/12/02 02:28:52;;;;;;;56.45;17.58;;;;;;;;;;5072566;28;20052;-90
2023/12/02 02:31:33;;;;;;;44.20;15.95;;;;;;;;;;5072769;28;20187;-91
2023/12/02 02:34:04;;;;;;;40.15;13.60;;;;;;;;;;5087859;28;20048;-90
2023/12/02 02:36:34;;;;;;;42.65;17.00;;;;;;;;;;5087566;28;20103;-90
2023/12/02 02:39:23;;;;;;;55.97;18.02;;;;;;;;;;5070816;28;20044;-90
2023/12/02 02:41:54;;;;;;;47.55;15.85;;;;;;;;;;5070316;28;20032;-90
2023/12/02 02:44:38;;;;;;;48.08;16.40;;;;;;;;;;5073472;28;20112;-91
2023/12/02 02:47:11;;;;;;;41.35;16.20;;;;;;;;;;5077226;28;20036;-90
2023/12/02 02:49:41;;;;;;;41.00;16.52;;;;;;;;;;5074946;28;20104;-91
2023/12/02 02:52:08;;;;;;;50.03;15.88;;;;;;;;;;5071605;28;20116;-91
2023/12/02 02:54:49;;;;;;;33.40;14.32;;;;;;;;;;5088482;28;20090;-90
2023/12/02 02:57:23;;;;;;;41.03;14.40;;;;;;;;;;5073088;28;20059;-90
2023/12/02 03:00:04;;;;;;;47.15;18.38;;;;;;;;;;5090873;28;20044;-89
2023/12/02 03:02:32;;;;;;;45.53;16.42;;;;;;;;;;5071546;28;20068;-90
2023/12/02 03:05:05;;;;;;;42.55;15.13;;;;;;;;;;5265869;22;20064;-91
2023/12/02 03:07:35;;;;;;;40.92;16.27;;;;;;;;;;5073200;28;20049;-91
2023/12/02 03:10:04;;;;;;;36.40;14.15;;;;;;;;;;5088773;28;20049;-91
2023/12/02 03:12:45;;;;;;;40.75;13.40;;;;;;;;;;5072199;28;20094;-91
2023/12/02 03:15:18;;;;;;;41.35;15.80;;;;;;;;;;5075373;28;20091;-91
2023/12/02 03:17:50;;;;;;;37.15;12.27;;;;;;;;;;5071776;28;20087;-91
2023/12/02 03:20:26;;;;;;;42.33;14.02;;;;;;;;;;5071408;28;20135;-91
2023/12/02 03:23:07;;;;;;;36.08;13.45;;;;;;;;;;5071381;28;20052;-91
2023/12/02 03:25:37;;;;;;;40.72;15.27;;;;;;;;;;5088898;28;20060;-90
2023/12/02 03:28:05;;;;;;;51.97;16.70;;;;;;;;;;5089611;28;20139;-91
2023/12/02 03:30:43;;;;;;;51.17;15.65;;;;;;;;;;5073767;28;20131;-91
2023/12/02 03:33:10;;;;;;;37.38;14.10;;;;;;;;;;5073163;28;20051;-91
2023/12/02 03:35:53;;;;;;;41.13;13.85;;;;;;;;;;5071227;28;20059;-91
2023/12/02 03:38:34;;;;;;;44.97;17.00;;;;;;;;;;5073147;28;20071;-90
2023/12/02 03:41:06;;;;;;;36.70;15.18;;;;;;;;;;5088305;28;20318;-91
2023/12/02 03:43:35;;;;;;;36.35;14.05;;;;;;;;;;5071700;28;20048;-91
2023/12/02 03:46:28;;;;;;;44.20;15.43;;;;;;;;;;5073088;28;20192;-91
2023/12/02 03:49:01;;;;;;;41.88;14.55;;;;;;;;;;5071422;28;20056;-90
2023/12/02 03:51:31;;;;;;;37.10;15.75;;;;;;;;;;5088014;28;20056;-91
2023/12/02 03:54:14;;;;;;;40.95;16.00;;;;;;;;;;5071586;28;20056;-90
2023/12/02 03:56:44;;;;;;;36.35;15.23;;;;;;;;;;5088957;28;20049;-90
2023/12/02 03:59:13;;;;;;;38.97;13.32;;;;;;;;;;5071397;28;20086;-90
2023/12/02 04:01:41;;;;;;;36.22;14.75;;;;;;;;;;5071514;28;20062;-92
2023/12/02 04:04:18;;;;;;;39.92;14.95;;;;;;;;;;5066822;28;20152;-91
2023/12/02 04:06:47;;;;;;;41.75;14.95;;;;;;;;;;5068317;28;20445;-91
2023/12/02 04:09:19;;;;;;;33.05;13.60;;;;;;;;;;5071238;28;20044;-91
2023/12/02 04:11:49;;;;;;;39.78;15.80;;;;;;;;;;5077421;28;20097;-90
2023/12/02 04:14:16;;;;;;;40.17;14.55;;;;;;;;;;5072560;28;20063;-91
2023/12/02 04:16:46;;;;;;;42.20;15.57;;;;;;;;;;5073055;28;20064;-90
2023/12/02 04:19:19;;;;;;;41.22;15.00;;;;;;;;;;5068473;28;20083;-90
2023/12/02 04:21:48;;;;;;;36.17;15.25;;;;;;;;;;5068688;28;20049;-91
2023/12/02 04:24:19;;;;;;;51.58;15.00;;;;;;;;;;5069947;28;20053;-91
2023/12/02 04:26:47;;;;;;;36.20;12.85;;;;;;;;;;5067488;28;20060;-91
2023/12/02 04:29:22;;;;;;;37.33;13.50;;;;;;;;;;5067803;28;20068;-91
2023/12/02 04:31:54;;;;;;;36.22;13.52;;;;;;;;;;5067120;28;20064;-91
2023/12/02 04:34:26;;;;;;;41.97;15.23;;;;;;;;;;5067376;28;20029;-91
2023/12/02 04:36:57;;;;;;;44.92;14.82;;;;;;;;;;5066907;28;20049;-92
2023/12/02 04:39:28;;;;;;;40.83;14.82;;;;;;;;;;5066700;28;20049;-91
2023/12/02 04:41:59;;;;;;;39.10;13.90;;;;;;;;;;5066415;28;20059;-90
2023/12/02 04:44:40;;;;;;;24.23;11.98;;;;;;;;;;5067081;28;20117;-91
2023/12/02 04:47:19;;;;;;;34.45;14.25;;;;;;;;;;5067841;28;20225;-91
2023/12/02 04:49:48;;;;;;;37.85;13.95;;;;;;;;;;5065791;28;20099;-90
2023/12/02 04:52:30;;;;;;;38.15;14.23;;;;;;;;;;5067498;28;20072;-91
2023/12/02 04:55:01;;;;;;;44.72;16.58;;;;;;;;;;5067372;28;20049;-91
2023/12/02 04:57:31;;;;;;;40.50;15.48;;;;;;;;;;5068532;28;20049;-92
2023/12/02 05:00:16;;;;;;;40.90;13.57;;;;;;;;;;5065786;28;20056;-91
2023/12/02 05:02:47;;;;;;;36.67;14.20;;;;;;;;;;5071155;28;20053;-91
2023/12/02 05:05:30;;;;;;;42.55;15.23;;;;;;;;;;5070631;28;20060;-91
2023/12/02 05:08:04;;;;;;;42.45;13.93;;;;;;;;;;5078142;28;20037;-91
2023/12/02 05:10:35;;;;;;;37.58;15.10;;;;;;;;;;5080657;28;20037;-91
2023/12/02 05:13:04;;;;;;;38.67;13.40;;;;;;;;;;5080453;28;20057;-91
2023/12/02 05:15:48;;;;;;;49.45;15.95;;;;;;;;;;5076971;28;20037;-91
2023/12/02 05:18:28;;;;;;;41.05;15.88;;;;;;;;;;5080875;28;20033;-90
2023/12/02 05:21:09;;;;;;;38.28;14.10;;;;;;;;;;4996997;28;20031;-91
2023/12/02 05:23:51;;;;;;;40.08;13.95;;;;;;;;;;5014314;28;20031;-91
2023/12/02 05:26:26;;;;;;;36.00;13.80;;;;;;;;;;5000536;28;20038;-91
2023/12/02 05:31:43;;;;;;;37.97;14.13;;;;;;;;;;5407286;23;20062;-90
2023/12/02 05:34:26;;;;;;;39.97;14.50;;;;;;;;;;5018919;28;20054;-91
2023/12/02 05:36:58;;;;;;;35.60;12.27;;;;;;;;;;5018189;28;20133;-92
2023/12/02 05:39:31;;;;;;;33.00;12.18;;;;;;;;;;5036674;28;20065;-91
2023/12/02 05:42:04;;;;;;;30.73;12.40;;;;;;;;;;5020498;28;20049;-91
2023/12/02 05:44:51;;;;;;;48.60;14.77;;;;;;;;;;4985565;28;20137;-91
2023/12/02 05:47:23;;;;;;;35.45;13.65;;;;;;;;;;5016865;28;20050;-91
2023/12/02 05:50:06;;;;;;;35.90;14.30;;;;;;;;;;5016462;28;20113;-90
2023/12/02 05:52:49;;;;;;;37.55;13.85;;;;;;;;;;5015370;28;20046;-91
2023/12/02 05:55:21;;;;;;;33.95;12.50;;;;;;;;;;5013412;28;20049;-92
2023/12/02 05:58:05;;;;;;;38.10;14.35;;;;;;;;;;5029792;28;20093;-91
2023/12/02 06:00:35;;;;;;;39.78;14.80;;;;;;;;;;5013338;28;20080;-90
2023/12/02 06:03:04;;;;;;;54.55;15.88;;;;;;;;;;5013659;28;20054;-91
2023/12/02 06:05:37;;;;;;;36.67;12.57;;;;;;;;;;5018360;28;20048;-91
2023/12/02 06:08:06;;;;;;;40.90;14.40;;;;;;;;;;5017409;28;20053;-91
2023/12/02 06:10:35;;;;;;;41.10;14.73;;;;;;;;;;5016385;28;20049;-91
2023/12/02 06:13:09;;;;;;;42.78;14.95;;;;;;;;;;5019031;28;20054;-90
2023/12/02 06:15:50;;;;;;;29.15;10.93;;;;;;;;;;5020209;28;20113;-90
2023/12/02 06:18:26;;;;;;;40.13;14.70;;;;;;;;;;5018133;28;20134;-91
2023/12/02 06:20:57;;;;;;;37.92;13.32;;;;;;;;;;5018341;28;20050;-91
2023/12/02 06:23:32;;;;;;;;;;;;;;;;;;5018854;28;20049;-91
2023/12/02 06:26:14;;;;;;;33.40;12.60;;;;;;;;;;5027159;28;20445;-91
2023/12/02 06:28:56;;;;;;;43.42;14.73;;;;;;;;;;5014178;28;20193;-91
2023/12/02 06:31:27;;;;;;;35.03;13.45;;;;;;;;;;5012138;28;20061;-92
2023/12/02 06:34:08;;;;;;;41.55;14.10;;;;;;;;;;5013370;28;20054;-91
2023/12/02 06:36:41;;;;;;;38.50;13.75;;;;;;;;;;5029554;28;20053;-90
2023/12/02 06:39:18;;;;;;;50.72;16.10;;;;;;;;;;5032888;28;20053;-91
2023/12/02 06:42:00;;;;;;;38.22;15.63;;;;;;;;;;5011797;28;20054;-91
2023/12/02 06:44:36;;;;;;;38.53;14.40;;;;;;;;;;5012835;28;20575;-91
2023/12/02 06:47:13;;;;;;;44.65;15.23;;;;;;;;;;5012273;28;20054;-92
2023/12/02 06:49:50;;;;;;;42.88;14.70;;;;;;;;;;5013389;28;20153;-92
2023/12/02 06:52:29;;;;;;;34.72;14.55;;;;;;;;;;5015554;28;20049;-93
2023/12/02 06:55:04;;;;;;;51.38;14.85;;;;;;;;;;5015708;28;20072;-91
2023/12/02 06:57:48;;;;;;;36.00;14.05;;;;;;;;;;5032360;28;20034;-91
2023/12/02 07:00:22;;;;;;;41.00;15.73;;;;;;;;;;5081434;23;20049;-91
2023/12/02 07:03:09;;;;;;;48.15;15.35;;;;;;;;;;5020931;28;20298;-92
2023/12/02 07:05:46;;;;;;;45.08;14.95;;;;;;;;;;5009813;28;20105;-92
2023/12/02 07:08:20;;;;;;;43.58;15.35;;;;;;;;;;5012156;28;20058;-91
2023/12/02 07:10:59;;;;;;;47.72;15.48;;;;;;;;;;5017462;28;20042;-92
2023/12/02 07:13:43;;;;;;;47.00;13.90;;;;;;;;;;5013074;28;20140;-91
2023/12/02 07:16:16;;;;;;;44.45;15.27;;;;;;;;;;5007930;28;20054;-91
2023/12/02 07:18:44;;;;;;;34.50;12.43;;;;;;;;;;5006592;28;20042;-91
2023/12/02 07:21:17;;;;;;;40.35;14.38;;;;;;;;;;5009338;28;20097;-92
2023/12/02 07:24:01;;;;;;;37.67;14.65;;;;;;;;;;5005890;28;20046;-90
2023/12/02 07:26:33;;;;;;;45.55;14.80;;;;;;;;;;5005715;28;20116;-90
2023/12/02 07:29:04;;;;;;;35.72;15.00;;;;;;;;;;5006226;28;20054;-90
2023/12/02 07:31:46;;;;;;;41.20;15.65;;;;;;;;;;5006438;28;20084;-90
2023/12/02 07:34:19;;;;;;;46.47;14.73;;;;;;;;;;5008411;28;20406;-90
2023/12/02 07:36:56;;;;;;;42.60;15.35;;;;;;;;;;5007734;28;20050;-92
2023/12/02 07:39:25;;;;;;;38.65;15.40;;;;;;;;;;5007070;28;20054;-91
2023/12/02 07:41:54;;;;;;;43.60;15.00;;;;;;;;;;5005869;28;20122;-91
2023/12/02 07:44:26;;;;;;;45.80;14.77;;;;;;;;;;5006557;28;20050;-91
2023/12/02 07:46:56;;;;;;;50.53;15.85;;;;;;;;;;5005670;28;20411;-91
2023/12/02 07:49:40;;;;;;;44.95;14.95;;;;;;;;;;5007967;28;20054;-92
2023/12/02 07:52:24;;;;;;;49.35;14.35;;;;;;;;;;5009125;28;20060;-92
2023/12/02 07:54:55;;;;;;;50.17;17.67;;;;;;;;;;5006473;28;20057;-91
2023/12/02 07:57:26;;;;;;;36.67;13.52;;;;;;;;;;5005933;28;20050;-91
2023/12/02 07:59:55;;;;;;;40.65;13.63;;;;;;;;;;5005370;28;20059;-91
2023/12/02 14:22:25;;;;;;;24.30;10.40;;;;;;;;;;1182229;23;21695;-88
2023/12/02 14:25:14;;;;;;;25.13;10.68;;;;;;;;;;4952811;28;20146;-89
2023/12/02 14:27:48;;;;;;;31.50;12.10;;;;;;;;;;4956081;28;20201;-90
2023/12/02 14:30:31;;;;;;;22.20;10.38;;;;;;;;;;4958986;28;20079;-91
2023/12/02 14:33:09;;;;;;;27.70;10.05;;;;;;;;;;4955755;29;20047;-91
2023/12/02 14:36:05;;;;;;;24.08;9.80;;;;;;;;;;4953981;29;20113;-90
2023/12/02 14:38:35;;;;;;;31.17;11.80;;;;;;;;;;4952161;29;20055;-91
2023/12/02 14:41:08;;;;;;;23.63;9.52;;;;;;;;;;4951490;29;20069;-90
2023/12/02 14:43:50;;;;;;;25.88;9.77;;;;;;;;;;4949551;29;20063;-92
2023/12/02 14:46:20;;;;;;;28.00;11.15;;;;;;;;;;4948589;29;20070;-92
2023/12/02 14:48:52;;;;;;;34.78;13.75;;;;;;;;;;4965575;29;20256;-91
2023/12/02 14:51:28;;;;;;;25.27;10.02;;;;;;;;;;4949430;28;20118;-92
2023/12/02 14:54:10;;;;;;;23.90;10.00;;;;;;;;;;4953814;28;20047;-92
2023/12/02 14:56:41;;;;;;;25.30;9.98;;;;;;;;;;4965423;29;20582;-92
2023/12/02 14:59:10;;;;;;;20.27;9.23;;;;;;;;;;4970884;28;20098;-91
2023/12/02 15:01:44;;;;;;;24.90;10.70;;;;;;;;;;4967697;29;20050;-92
2023/12/02 15:04:17;;;;;;;22.83;9.30;;;;;;;;;;4958912;28;20035;-91
2023/12/02 15:06:49;;;;;;;27.25;11.00;;;;;;;;;;4954457;28;20255;-91
2023/12/02 15:09:19;;;;;;;25.00;9.60;;;;;;;;;;4950048;29;20051;-92
2023/12/02 15:11:46;;;;;;;29.77;10.45;;;;;;;;;;4966616;28;20066;-92
2023/12/02 15:14:15;;;;;;;21.83;9.57;;;;;;;;;;4949279;29;20066;-91
2023/12/02 15:16:47;;;;;;;24.85;9.25;;;;;;;;;;4949105;29;20228;-91
2023/12/02 15:19:17;;;;;;;25.38;10.27;;;;;;;;;;4949142;29;20055;-91
2023/12/02 15:22:05;;;;;;;24.58;10.73;;;;;;;;;;4947292;29;20078;-92
2023/12/02 15:24:33;;;;;;;32.85;13.30;;;;;;;;;;4944761;29;20138;-90
2023/12/02 15:27:02;;;;;;;30.30;13.55;;;;;;;;;;4946528;29;20111;-91
2023/12/02 15:29:37;;;;;;;30.02;13.45;;;;;;;;;;4948698;29;20052;-92
2023/12/02 15:32:07;;;;;;;27.30;11.82;;;;;;;;;;4946382;29;20051;-93
2023/12/02 15:34:41;;;;;;;20.52;10.45;;;;;;;;;;4946472;29;20047;-91
2023/12/02 15:37:13;;;;;;;24.60;10.25;;;;;;;;;;4948705;29;20531;-91
2023/12/02 15:39:54;;;;;;;21.40;10.43;;;;;;;;;;4950288;29;20056;-91
2023/12/02 15:42:22;;;;;;;19.95;11.02;;;;;;;;;;4949734;29;20062;-91
2023/12/02 15:44:51;;;;;;;25.70;11.25;;;;;;;;;;4945357;29;20058;-91
2023/12/02 15:47:20;;;;;;;23.17;9.85;;;;;;;;;;4944395;29;20095;-90
2023/12/02 15:49:49;;;;;;;27.45;11.85;;;;;;;;;;4945392;29;20066;-92
2023/12/02 15:52:18;;;;;;;18.00;8.43;;;;;;;;;;4944692;29;20083;-91
2023/12/02 15:54:46;;;;;;;17.83;9.10;;;;;;;;;;4946567;29;20039;-92
2023/12/02 15:57:20;;;;;;;20.10;8.80;;;;;;;;;;4948937;29;20067;-91
2023/12/02 15:59:49;;;;;;;20.67;8.40;;;;;;;;;;4948759;29;20055;-92
2023/12/02 16:02:21;;;;;;;17.63;7.85;;;;;;;;;;4946461;29;20056;-91
2023/12/02 16:04:49;;;;;;;21.08;8.07;;;;;;;;;;4949798;29;20048;-92
2023/12/02 16:07:18;;;;;;;15.70;7.07;;;;;;;;;;4954476;29;20219;-90
2023/12/02 16:09:49;;;;;;;19.08;8.23;;;;;;;;;;4945546;29;20051;-92
2023/12/02 16:12:20;;;;;;;21.77;7.38;;;;;;;;;;4945112;29;20066;-92
2023/12/02 16:14:48;;;;;;;19.83;8.60;;;;;;;;;;4944477;29;20393;-92
2023/12/02 16:17:17;;;;;;;19.80;7.63;;;;;;;;;;4959853;28;20059;-90
2023/12/02 16:19:47;;;;;;;15.35;6.13;;;;;;;;;;4945126;29;20055;-92
2023/12/02 16:22:17;;;;;;;17.08;6.25;;;;;;;;;;4948609;28;20035;-90
2023/12/02 16:24:46;;;;;;;14.48;6.13;;;;;;;;;;4974164;28;20043;-92
2023/12/02 16:27:17;;;;;;;13.60;6.18;;;;;;;;;;4958380;28;20070;-92
2023/12/02 16:29:52;;;;;;;15.18;6.35;;;;;;;;;;4974680;28;20039;-91
2023/12/02 16:32:38;;;;;;;16.67;6.72;;;;;;;;;;4972387;28;20058;-91
2023/12/02 16:35:09;;;;;;;15.60;6.70;;;;;;;;;;4958125;28;20042;-91
2023/12/02 16:37:38;;;;;;;12.40;6.47;;;;;;;;;;4958120;28;20098;-91
2023/12/02 16:40:11;;;;;;;16.10;6.38;;;;;;;;;;4958315;28;20035;-92
2023/12/02 16:42:45;;;;;;;15.18;6.80;;;;;;;;;;4957220;28;20055;-91
2023/12/02 16:45:25;;;;;;;15.00;6.13;;;;;;;;;;4957196;28;20051;-91
2023/12/02 16:47:55;;;;;;;12.40;5.88;;;;;;;;;;4956060;28;20098;-91
2023/12/02 16:50:30;;;;;;;12.68;5.20;;;;;;;;;;4968661;29;20055;-91
2023/12/02 16:53:02;;;;;;;11.50;5.82;;;;;;;;;;4950587;29;20070;-92
2023/12/02 16:55:46;;;;;;;12.93;5.20;;;;;;;;;;4968152;28;20119;-93
2023/12/02 16:58:28;;;;;;;15.00;7.78;;;;;;;;;;4974712;28;20039;-91
2023/12/02 17:01:07;;;;;;;19.63;6.75;;;;;;;;;;4955283;28;20055;-91
2023/12/02 17:03:35;;;;;;;14.45;5.78;;;;;;;;;;4968878;29;20089;-91
2023/12/02 17:06:09;;;;;;;11.27;5.60;;;;;;;;;;4952002;29;20102;-91
2023/12/02 17:08:52;;;;;;;12.88;4.30;;;;;;;;;;4951366;29;20396;-91
2023/12/02 17:11:21;;;;;;;12.73;6.20;;;;;;;;;;4951344;29;20055;-91
2023/12/02 17:13:51;;;;;;;10.20;4.88;;;;;;;;;;4950997;29;20267;-92
2023/12/02 17:16:34;;;;;;;10.63;4.88;;;;;;;;;;4951955;29;20172;-91
2023/12/02 17:19:03;;;;;;;13.55;6.05;;;;;;;;;;4952092;28;20070;-92
2023/12/02 17:21:33;;;;;;;8.10;3.60;;;;;;;;;;4951223;29;20176;-92
2023/12/02 17:24:02;;;;;;;13.65;6.15;;;;;;;;;;4947717;29;20067;-92
2023/12/02 17:26:32;;;;;;;12.02;6.22;;;;;;;;;;4955534;28;20103;-92
2023/12/02 17:29:00;;;;;;;14.05;6.28;;;;;;;;;;4950128;29;20380;-92
2023/12/02 17:31:31;;;;;;;15.73;6.90;;;;;;;;;;4950185;29;20035;-91
2023/12/02 17:34:04;;;;;;;12.32;4.53;;;;;;;;;;4963218;29;20144;-92
2023/12/02 17:36:33;;;;;;;19.83;7.18;;;;;;;;;;4947674;29;20115;-92
2023/12/02 17:39:10;;;;;;;14.00;6.15;;;;;;;;;;4948111;29;20081;-91
2023/12/02 17:41:40;;;;;;;12.30;5.57;;;;;;;;;;4953767;29;20098;-92
2023/12/02 17:44:08;;;;;;;12.30;4.97;;;;;;;;;;4954845;29;20119;-92
2023/12/02 17:46:38;;;;;;;13.73;5.85;;;;;;;;;;4948498;29;20061;-92
2023/12/02 17:49:17;;;;;;;17.38;7.28;;;;;;;;;;4947710;29;20052;-92
2023/12/02 17:51:53;;;;;;;14.02;5.78;;;;;;;;;;4947307;29;20062;-92
2023/12/02 17:54:33;;;;;;;19.67;7.22;;;;;;;;;;4941408;29;20179;-92
2023/12/02 17:57:01;;;;;;;13.10;5.95;;;;;;;;;;4948870;29;20107;-92
2023/12/02 17:59:31;;;;;;;15.82;5.57;;;;;;;;;;4948948;29;20068;-92
2023/12/02 18:01:59;;;;;;;13.20;5.47;;;;;;;;;;4949887;29;20328;-91
2023/12/02 18:04:27;;;;;;;13.55;6.65;;;;;;;;;;4947215;29;20263;-92
2023/12/02 18:06:57;;;;;;;22.33;6.20;;;;;;;;;;4948776;29;20107;-93
2023/12/02 18:09:39;;;;;;;21.45;6.72;;;;;;;;;;4951218;29;20103;-91
2023/12/02 18:12:12;;;;;;;16.08;6.50;;;;;;;;;;4952349;29;20059;-91
2023/12/02 18:14:41;;;;;;;15.23;7.40;;;;;;;;;;4950686;29;20120;-91
2023/12/02 18:17:09;;;;;;;13.77;6.55;;;;;;;;;;4950711;29;20103;-92
2023/12/02 18:19:38;;;;;;;18.02;7.78;;;;;;;;;;4954126;29;20035;-92
2023/12/02 18:22:20;;;;;;;14.48;7.20;;;;;;;;;;4949342;28;20047;-92
2023/12/02 18:25:02;;;;;;;17.17;7.95;;;;;;;;;;4954292;28;20364;-92
2023/12/02 18:27:33;;;;;;;14.02;7.25;;;;;;;;;;4970135;29;20055;-92
2023/12/02 18:30:04;;;;;;;14.55;6.13;;;;;;;;;;4952745;28;20476;-92
2023/12/02 18:32:37;;;;;;;17.42;5.97;;;;;;;;;;4973938;29;20070;-92
2023/12/02 18:35:20;;;;;;;15.43;7.05;;;;;;;;;;4962378;28;20046;-93
2023/12/02 18:43:25;;;;;;;19.98;8.32;;;;;;;;;;5049253;23;20091;-92
2023/12/02 18:46:08;;;;;;;23.85;8.50;;;;;;;;;;4944173;29;20040;-91
2023/12/02 18:48:39;;;;;;;14.13;7.82;;;;;;;;;;4951325;29;20066;-91
2023/12/02 18:51:20;;;;;;;14.18;5.90;;;;;;;;;;4950372;29;20076;-92
2023/12/02 18:54:02;;;;;;;17.80;7.30;;;;;;;;;;4953571;29;20107;-92
2023/12/02 18:56:43;;;;;;;18.38;8.40;;;;;;;;;;4950268;29;20082;-91
2023/12/02 18:59:15;;;;;;;18.48;7.00;;;;;;;;;;4952905;29;20055;-92
2023/12/02 19:01:59;;;;;;;16.27;7.25;;;;;;;;;;4956189;29;20024;-92
2023/12/02 19:04:31;;;;;;;27.08;9.10;;;;;;;;;;4954245;29;20060;-92
2023/12/02 19:07:05;;;;;;;17.98;7.93;;;;;;;;;;4947189;29;20055;-92
2023/12/02 19:09:40;;;;;;;17.30;8.18;;;;;;;;;;4947964;29;20142;-92
2023/12/02 19:12:09;;;;;;;18.02;7.43;;;;;;;;;;4948025;29;20094;-91
2023/12/02 19:14:38;;;;;;;18.50;7.80;;;;;;;;;;4948375;29;20095;-92
2023/12/02 19:17:09;;;;;;;21.13;7.88;;;;;;;;;;4949317;29;20059;-90
2023/12/02 19:19:54;;;;;;;15.30;6.40;;;;;;;;;;4946772;29;20066;-89
2023/12/02 19:22:35;;;;;;;18.13;7.93;;;;;;;;;;4945050;29;20049;-90
2023/12/02 19:25:19;;;;;;;17.10;7.25;;;;;;;;;;4946398;29;20059;-91
2023/12/02 19:28:00;;;;;;;20.80;8.07;;;;;;;;;;4946178;29;20079;-89
2023/12/02 19:30:41;;;;;;;17.90;7.30;;;;;;;;;;4944217;29;20067;-90
2023/12/02 19:33:29;;;;;;;14.98;6.97;;;;;;;;;;4947757;29;20055;-90
2023/12/02 19:36:12;;;;;;;19.50;7.28;;;;;;;;;;4947106;29;20113;-90
2023/12/02 19:38:52;;;;;;;17.52;8.18;;;;;;;;;;4947184;29;20410;-91
2023/12/02 19:41:33;;;;;;;18.67;7.18;;;;;;;;;;4945725;29;20400;-89
2023/12/02 19:44:19;;;;;;;19.15;8.45;;;;;;;;;;4949691;28;20186;-91
2023/12/02 19:46:59;;;;;;;18.37;8.17;;;;;;;;;;4951141;29;20308;-91
2023/12/02 19:49:46;;;;;;;22.60;7.28;;;;;;;;;;4947531;29;20035;-90
2023/12/02 19:52:16;;;;;;;18.05;7.88;;;;;;;;;;4948858;29;20123;-91
2023/12/02 19:55:00;;;;;;;20.92;7.45;;;;;;;;;;4951244;29;20050;-91
2023/12/02 19:57:44;;;;;;;16.80;8.05;;;;;;;;;;4951712;29;20051;-91
2023/12/02 20:00:29;;;;;;;15.23;7.95;;;;;;;;;;4953341;29;20081;-91
2023/12/02 20:03:23;;;;;;;19.17;8.30;;;;;;;;;;4968218;28;20047;-90
2023/12/02 20:06:09;;;;;;;18.92;7.70;;;;;;;;;;4952682;28;20082;-90
2023/12/02 20:08:51;;;;;;;18.15;6.97;;;;;;;;;;4967213;29;20120;-90
2023/12/02 20:11:35;;;;;;;30.05;13.45;;;;;;;;;;4951796;29;20426;-91
2023/12/02 20:14:16;;;;;;;16.92;7.75;;;;;;;;;;4961366;28;20059;-90
2023/12/02 20:16:57;;;;;;;19.50;7.63;;;;;;;;;;4947522;29;20039;-91
2023/12/02 20:19:40;;;;;;;18.15;7.68;;;;;;;;;;5120085;23;20061;-90
2023/12/02 20:22:29;;;;;;;18.05;7.90;;;;;;;;;;4968906;29;20035;-90
2023/12/02 20:25:12;;;;;;;14.15;7.13;;;;;;;;;;4954397;29;20055;-91
2023/12/02 20:27:56;;;;;;;17.90;7.70;;;;;;;;;;4946654;29;20143;-91
2023/12/02 20:30:37;;;;;;;19.20;8.68;;;;;;;;;;4954696;29;20055;-91
2023/12/02 20:33:21;;;;;;;17.77;7.68;;;;;;;;;;4969301;29;20141;-90
2023/12/02 20:35:55;;;;;;;19.42;7.75;;;;;;;;;;4955919;29;20419;-91
2023/12/02 20:38:37;;;;;;;22.58;9.07;;;;;;;;;;4955894;29;20126;-90
2023/12/02 20:41:18;;;;;;;23.88;9.38;;;;;;;;;;4955909;29;20062;-90
2023/12/02 20:44:02;;;;;;;23.33;10.05;;;;;;;;;;4958487;29;20062;-91
2023/12/02 20:46:43;;;;;;;18.88;7.72;;;;;;;;;;4970190;28;20118;-91
2023/12/02 20:49:25;;;;;;;25.67;9.57;;;;;;;;;;4954115;29;20039;-92
2023/12/02 20:51:53;;;;;;;19.52;8.95;;;;;;;;;;4953712;29;20115;-91
2023/12/02 20:54:34;;;;;;;24.48;9.32;;;;;;;;;;4955588;29;20058;-91
2023/12/02 20:57:16;;;;;;;19.67;8.52;;;;;;;;;;4954790;29;20047;-92
2023/12/02 20:59:57;;;;;;;18.88;8.90;;;;;;;;;;4954480;29;20070;-90
2023/12/02 21:02:39;;;;;;;22.17;9.43;;;;;;;;;;4969973;28;20128;-91
2023/12/02 21:05:26;;;;;;;26.58;11.98;;;;;;;;;;4969882;29;20106;-91
2023/12/02 21:08:06;;;;;;;28.80;8.80;;;;;;;;;;4953680;29;20120;-90
2023/12/02 21:10:40;;;;;;;25.33;9.75;;;;;;;;;;4953241;29;20114;-91
2023/12/02 21:13:23;;;;;;;20.52;9.50;;;;;;;;;;4952795;29;20050;-90
2023/12/02 21:16:04;;;;;;;20.77;10.10;;;;;;;;;;4951977;29;20069;-89
2023/12/02 21:18:45;;;;;;;29.75;10.98;;;;;;;;;;4955424;29;20087;-90
2023/12/02 21:21:27;;;;;;;24.77;10.60;;;;;;;;;;4928984;29;20056;-90
2023/12/02 21:24:13;;;;;;;29.73;12.43;;;;;;;;;;4931071;29;20072;-90
2023/12/02 21:26:54;;;;;;;27.63;11.43;;;;;;;;;;4930637;29;20153;-91
2023/12/02 21:29:37;;;;;;;26.73;12.38;;;;;;;;;;4930983;29;20058;-90
2023/12/02 21:32:26;;;;;;;29.23;13.52;;;;;;;;;;4933706;29;20048;-91
2023/12/02 21:35:01;;;;;;;22.25;9.15;;;;;;;;;;4931869;29;20071;-90
2023/12/02 21:37:43;;;;;;;31.40;12.13;;;;;;;;;;4935469;29;20039;-91
2023/12/02 21:40:16;;;;;;;55.97;21.25;;;;;;;;;;4932606;29;20052;-90